sensor_id;sensor_type;location;lat;lon;timestamp;P1;durP1;ratioP1;P2;durP2;ratioP2
11016;SDS011;54687;50.800;6.772;2023-11-19T00:01:51;2.85;;;0.68;;
11016;SDS011;54687;50.800;6.772;2023-11-19T00:04:17;0.80;;;0.52;;
11016;SDS011;54687;50.800;6.772;2023-11-19T00:06:44;0.88;;;0.63;;
11016;SDS011;54687;50.800;6.772;2023-11-19T00:09:10;0.95;;;0.50;;
11016;SDS011;54687;50.800;6.772;2023-11-19T00:11:39;1.27;;;1.13;;
11016;SDS011;54687;50.800;6.772;2023-11-19T00:14:05;2.03;;;1.00;;
11016;SDS011;54687;50.800;6.772;2023-11-19T00:16:33;0.98;;;0.70;;
11016;SDS011;54687;50.800;6.772;2023-11-19T00:19:00;0.80;;;0.80;;
11016;SDS011;54687;50.800;6.772;2023-11-19T00:21:26;0.73;;;0.73;;
11016;SDS011;54687;50.800;6.772;2023-11-19T00:23:53;0.52;;;0.52;;
11016;SDS011;54687;50.800;6.772;2023-11-19T00:26:23;1.52;;;1.33;;
11016;SDS011;54687;50.800;6.772;2023-11-19T00:28:51;0.57;;;0.57;;
11016;SDS011;54687;50.800;6.772;2023-11-19T00:31:18;1.88;;;1.10;;
11016;SDS011;54687;50.800;6.772;2023-11-19T00:33:44;1.88;;;1.33;;
11016;SDS011;54687;50.800;6.772;2023-11-19T00:36:11;1.80;;;1.38;;
11016;SDS011;54687;50.800;6.772;2023-11-19T00:38:38;1.88;;;1.45;;
11016;SDS011;54687;50.800;6.772;2023-11-19T00:41:04;1.85;;;1.70;;
11016;SDS011;54687;50.800;6.772;2023-11-19T00:43:31;1.73;;;1.42;;
11016;SDS011;54687;50.800;6.772;2023-11-19T00:45:59;1.08;;;0.98;;
11016;SDS011;54687;50.800;6.772;2023-11-19T00:48:34;0.70;;;0.70;;
11016;SDS011;54687;50.800;6.772;2023-11-19T00:51:04;0.73;;;0.60;;
11016;SDS011;54687;50.800;6.772;2023-11-19T00:53:31;0.70;;;0.70;;
11016;SDS011;54687;50.800;6.772;2023-11-19T00:55:59;1.17;;;0.95;;
11016;SDS011;54687;50.800;6.772;2023-11-19T00:58:25;1.08;;;0.98;;
11016;SDS011;54687;50.800;6.772;2023-11-19T01:00:52;1.65;;;1.02;;
11016;SDS011;54687;50.800;6.772;2023-11-19T01:03:20;1.10;;;0.95;;
11016;SDS011;54687;50.800;6.772;2023-11-19T01:05:47;1.30;;;1.20;;
11016;SDS011;54687;50.800;6.772;2023-11-19T01:08:15;0.80;;;0.80;;
11016;SDS011;54687;50.800;6.772;2023-11-19T01:10:45;1.00;;;0.93;;
11016;SDS011;54687;50.800;6.772;2023-11-19T01:13:13;1.60;;;1.15;;
11016;SDS011;54687;50.800;6.772;2023-11-19T01:15:39;1.05;;;1.05;;
11016;SDS011;54687;50.800;6.772;2023-11-19T01:18:06;1.15;;;0.80;;
11016;SDS011;54687;50.800;6.772;2023-11-19T01:20:37;1.42;;;0.80;;
11016;SDS011;54687;50.800;6.772;2023-11-19T01:23:04;1.02;;;0.88;;
11016;SDS011;54687;50.800;6.772;2023-11-19T01:25:31;0.70;;;0.60;;
11016;SDS011;54687;50.800;6.772;2023-11-19T01:27:58;1.00;;;0.60;;
11016;SDS011;54687;50.800;6.772;2023-11-19T01:30:26;1.55;;;1.00;;
11016;SDS011;54687;50.800;6.772;2023-11-19T01:32:52;0.60;;;0.60;;
11016;SDS011;54687;50.800;6.772;2023-11-19T01:35:19;0.95;;;0.43;;
11016;SDS011;54687;50.800;6.772;2023-11-19T01:37:48;0.35;;;0.32;;
11016;SDS011;54687;50.800;6.772;2023-11-19T01:40:19;1.85;;;0.90;;
11016;SDS011;54687;50.800;6.772;2023-11-19T01:42:48;3.42;;;1.20;;
11016;SDS011;54687;50.800;6.772;2023-11-19T01:45:22;1.52;;;1.10;;
11016;SDS011;54687;50.800;6.772;2023-11-19T01:47:55;2.75;;;1.10;;
11016;SDS011;54687;50.800;6.772;2023-11-19T01:50:23;5.00;;;1.50;;
11016;SDS011;54687;50.800;6.772;2023-11-19T01:52:51;2.80;;;1.52;;
11016;SDS011;54687;50.800;6.772;2023-11-19T01:55:19;3.63;;;1.45;;
11016;SDS011;54687;50.800;6.772;2023-11-19T01:57:47;2.63;;;1.38;;
11016;SDS011;54687;50.800;6.772;2023-11-19T02:00:35;3.10;;;1.55;;
11016;SDS011;54687;50.800;6.772;2023-11-19T02:03:01;3.13;;;1.50;;
11016;SDS011;54687;50.800;6.772;2023-11-19T02:05:29;2.25;;;1.42;;
11016;SDS011;54687;50.800;6.772;2023-11-19T02:07:58;4.72;;;2.30;;
11016;SDS011;54687;50.800;6.772;2023-11-19T02:10:26;5.63;;;2.00;;
11016;SDS011;54687;50.800;6.772;2023-11-19T02:12:54;6.28;;;2.70;;
11016;SDS011;54687;50.800;6.772;2023-11-19T02:15:21;6.55;;;2.28;;
11016;SDS011;54687;50.800;6.772;2023-11-19T02:17:50;4.80;;;1.77;;
11016;SDS011;54687;50.800;6.772;2023-11-19T02:20:17;5.53;;;2.10;;
11016;SDS011;54687;50.800;6.772;2023-11-19T02:22:45;8.73;;;2.55;;
11016;SDS011;54687;50.800;6.772;2023-11-19T02:25:17;5.55;;;2.40;;
11016;SDS011;54687;50.800;6.772;2023-11-19T02:27:52;9.27;;;2.33;;
11016;SDS011;54687;50.800;6.772;2023-11-19T02:30:21;6.60;;;2.22;;
11016;SDS011;54687;50.800;6.772;2023-11-19T02:32:51;5.07;;;2.45;;
11016;SDS011;54687;50.800;6.772;2023-11-19T02:35:18;8.88;;;2.13;;
11016;SDS011;54687;50.800;6.772;2023-11-19T02:37:47;8.45;;;2.58;;
11016;SDS011;54687;50.800;6.772;2023-11-19T02:40:13;8.60;;;2.53;;
11016;SDS011;54687;50.800;6.772;2023-11-19T02:42:40;6.18;;;2.55;;
11016;SDS011;54687;50.800;6.772;2023-11-19T02:45:09;7.95;;;2.38;;
11016;SDS011;54687;50.800;6.772;2023-11-19T02:47:39;6.53;;;2.40;;
11016;SDS011;54687;50.800;6.772;2023-11-19T02:50:07;8.32;;;2.38;;
11016;SDS011;54687;50.800;6.772;2023-11-19T02:52:39;6.20;;;2.30;;
11016;SDS011;54687;50.800;6.772;2023-11-19T02:55:06;6.82;;;3.13;;
11016;SDS011;54687;50.800;6.772;2023-11-19T02:57:39;7.82;;;3.03;;
11016;SDS011;54687;50.800;6.772;2023-11-19T03:00:13;8.05;;;2.55;;
11016;SDS011;54687;50.800;6.772;2023-11-19T03:02:40;8.52;;;2.70;;
11016;SDS011;54687;50.800;6.772;2023-11-19T03:05:12;7.60;;;2.83;;
11016;SDS011;54687;50.800;6.772;2023-11-19T03:07:40;9.57;;;3.10;;
11016;SDS011;54687;50.800;6.772;2023-11-19T03:10:09;6.32;;;2.60;;
11016;SDS011;54687;50.800;6.772;2023-11-19T03:12:38;8.68;;;3.33;;
11016;SDS011;54687;50.800;6.772;2023-11-19T03:15:06;8.43;;;2.85;;
11016;SDS011;54687;50.800;6.772;2023-11-19T03:17:36;8.85;;;2.75;;
11016;SDS011;54687;50.800;6.772;2023-11-19T03:20:05;8.75;;;2.65;;
11016;SDS011;54687;50.800;6.772;2023-11-19T03:22:34;7.20;;;3.25;;
11016;SDS011;54687;50.800;6.772;2023-11-19T03:25:01;7.60;;;2.72;;
11016;SDS011;54687;50.800;6.772;2023-11-19T03:27:28;6.40;;;2.38;;
11016;SDS011;54687;50.800;6.772;2023-11-19T03:29:55;11.65;;;2.80;;
11016;SDS011;54687;50.800;6.772;2023-11-19T03:32:21;10.20;;;3.25;;
11016;SDS011;54687;50.800;6.772;2023-11-19T03:34:49;8.93;;;2.47;;
11016;SDS011;54687;50.800;6.772;2023-11-19T03:37:16;6.80;;;2.28;;
11016;SDS011;54687;50.800;6.772;2023-11-19T03:39:43;10.98;;;3.00;;
11016;SDS011;54687;50.800;6.772;2023-11-19T03:42:10;9.38;;;2.70;;
11016;SDS011;54687;50.800;6.772;2023-11-19T03:44:38;8.23;;;2.70;;
11016;SDS011;54687;50.800;6.772;2023-11-19T03:47:05;11.60;;;3.03;;
11016;SDS011;54687;50.800;6.772;2023-11-19T03:49:32;7.00;;;2.90;;
11016;SDS011;54687;50.800;6.772;2023-11-19T03:52:00;9.88;;;3.00;;
11016;SDS011;54687;50.800;6.772;2023-11-19T03:54:26;7.55;;;2.70;;
11016;SDS011;54687;50.800;6.772;2023-11-19T03:56:53;8.75;;;2.60;;
11016;SDS011;54687;50.800;6.772;2023-11-19T03:59:20;8.27;;;2.60;;
11016;SDS011;54687;50.800;6.772;2023-11-19T04:01:46;7.85;;;2.78;;
11016;SDS011;54687;50.800;6.772;2023-11-19T04:04:13;5.55;;;2.60;;
11016;SDS011;54687;50.800;6.772;2023-11-19T04:06:40;6.50;;;2.60;;
11016;SDS011;54687;50.800;6.772;2023-11-19T04:09:08;7.35;;;2.35;;
11016;SDS011;54687;50.800;6.772;2023-11-19T04:11:35;5.47;;;2.65;;
11016;SDS011;54687;50.800;6.772;2023-11-19T04:14:02;7.22;;;2.53;;
11016;SDS011;54687;50.800;6.772;2023-11-19T04:16:28;5.35;;;2.25;;
11016;SDS011;54687;50.800;6.772;2023-11-19T04:18:55;4.25;;;2.05;;
11016;SDS011;54687;50.800;6.772;2023-11-19T04:21:22;7.03;;;2.70;;
11016;SDS011;54687;50.800;6.772;2023-11-19T04:23:48;5.63;;;2.60;;
11016;SDS011;54687;50.800;6.772;2023-11-19T04:26:16;6.05;;;2.70;;
11016;SDS011;54687;50.800;6.772;2023-11-19T04:28:43;5.75;;;1.90;;
11016;SDS011;54687;50.800;6.772;2023-11-19T04:31:10;8.50;;;2.72;;
11016;SDS011;54687;50.800;6.772;2023-11-19T04:33:36;4.95;;;2.20;;
11016;SDS011;54687;50.800;6.772;2023-11-19T04:36:03;9.63;;;2.88;;
11016;SDS011;54687;50.800;6.772;2023-11-19T04:38:30;7.70;;;2.80;;
11016;SDS011;54687;50.800;6.772;2023-11-19T04:40:56;9.27;;;2.63;;
11016;SDS011;54687;50.800;6.772;2023-11-19T04:43:24;11.50;;;3.33;;
11016;SDS011;54687;50.800;6.772;2023-11-19T04:45:51;6.38;;;3.20;;
11016;SDS011;54687;50.800;6.772;2023-11-19T04:48:18;7.22;;;2.70;;
11016;SDS011;54687;50.800;6.772;2023-11-19T04:50:44;9.35;;;2.78;;
11016;SDS011;54687;50.800;6.772;2023-11-19T04:53:11;9.88;;;3.67;;
11016;SDS011;54687;50.800;6.772;2023-11-19T04:55:39;9.57;;;3.00;;
11016;SDS011;54687;50.800;6.772;2023-11-19T04:58:06;8.65;;;2.95;;
11016;SDS011;54687;50.800;6.772;2023-11-19T05:00:34;8.10;;;2.75;;
11016;SDS011;54687;50.800;6.772;2023-11-19T05:03:01;9.35;;;2.95;;
11016;SDS011;54687;50.800;6.772;2023-11-19T05:05:28;8.43;;;3.08;;
11016;SDS011;54687;50.800;6.772;2023-11-19T05:07:54;12.82;;;3.70;;
11016;SDS011;54687;50.800;6.772;2023-11-19T05:10:21;9.27;;;3.58;;
11016;SDS011;54687;50.800;6.772;2023-11-19T05:12:47;9.93;;;3.22;;
11016;SDS011;54687;50.800;6.772;2023-11-19T05:15:16;12.50;;;3.78;;
11016;SDS011;54687;50.800;6.772;2023-11-19T05:17:45;13.75;;;3.88;;
11016;SDS011;54687;50.800;6.772;2023-11-19T05:20:11;11.18;;;3.70;;
11016;SDS011;54687;50.800;6.772;2023-11-19T05:22:39;10.88;;;3.50;;
11016;SDS011;54687;50.800;6.772;2023-11-19T05:25:06;12.35;;;3.60;;
11016;SDS011;54687;50.800;6.772;2023-11-19T05:27:34;9.95;;;3.63;;
11016;SDS011;54687;50.800;6.772;2023-11-19T05:30:01;12.73;;;3.85;;
11016;SDS011;54687;50.800;6.772;2023-11-19T05:32:28;9.95;;;3.42;;
11016;SDS011;54687;50.800;6.772;2023-11-19T05:34:56;12.43;;;3.60;;
11016;SDS011;54687;50.800;6.772;2023-11-19T05:37:22;9.45;;;3.60;;
11016;SDS011;54687;50.800;6.772;2023-11-19T05:39:50;9.45;;;3.28;;
11016;SDS011;54687;50.800;6.772;2023-11-19T05:42:17;6.97;;;3.03;;
11016;SDS011;54687;50.800;6.772;2023-11-19T05:44:44;17.50;;;4.20;;
11016;SDS011;54687;50.800;6.772;2023-11-19T05:47:11;15.45;;;3.90;;
11016;SDS011;54687;50.800;6.772;2023-11-19T05:49:38;12.75;;;3.70;;
11016;SDS011;54687;50.800;6.772;2023-11-19T05:52:06;14.32;;;4.30;;
11016;SDS011;54687;50.800;6.772;2023-11-19T05:54:34;15.95;;;4.32;;
11016;SDS011;54687;50.800;6.772;2023-11-19T05:57:04;15.10;;;4.45;;
11016;SDS011;54687;50.800;6.772;2023-11-19T05:59:31;17.92;;;5.10;;
11016;SDS011;54687;50.800;6.772;2023-11-19T06:01:58;17.48;;;4.30;;
11016;SDS011;54687;50.800;6.772;2023-11-19T06:04:24;13.75;;;4.25;;
11016;SDS011;54687;50.800;6.772;2023-11-19T06:06:51;18.55;;;4.72;;
11016;SDS011;54687;50.800;6.772;2023-11-19T06:09:21;16.92;;;4.60;;
11016;SDS011;54687;50.800;6.772;2023-11-19T06:11:49;17.08;;;4.15;;
11016;SDS011;54687;50.800;6.772;2023-11-19T06:14:16;14.02;;;4.93;;
11016;SDS011;54687;50.800;6.772;2023-11-19T06:16:42;11.52;;;4.47;;
11016;SDS011;54687;50.800;6.772;2023-11-19T06:19:09;15.68;;;4.95;;
11016;SDS011;54687;50.800;6.772;2023-11-19T06:21:37;17.38;;;4.40;;
11016;SDS011;54687;50.800;6.772;2023-11-19T06:24:03;13.32;;;4.55;;
11016;SDS011;54687;50.800;6.772;2023-11-19T06:26:32;14.10;;;3.92;;
11016;SDS011;54687;50.800;6.772;2023-11-19T06:28:58;11.73;;;4.05;;
11016;SDS011;54687;50.800;6.772;2023-11-19T06:31:25;11.45;;;3.88;;
11016;SDS011;54687;50.800;6.772;2023-11-19T06:33:52;10.63;;;4.00;;
11016;SDS011;54687;50.800;6.772;2023-11-19T06:36:19;14.45;;;4.28;;
11016;SDS011;54687;50.800;6.772;2023-11-19T06:38:46;13.00;;;4.05;;
11016;SDS011;54687;50.800;6.772;2023-11-19T06:41:13;16.33;;;4.10;;
11016;SDS011;54687;50.800;6.772;2023-11-19T06:43:42;14.48;;;4.38;;
11016;SDS011;54687;50.800;6.772;2023-11-19T06:46:14;15.55;;;4.25;;
11016;SDS011;54687;50.800;6.772;2023-11-19T06:48:41;13.55;;;4.20;;
11016;SDS011;54687;50.800;6.772;2023-11-19T06:51:09;15.18;;;5.07;;
11016;SDS011;54687;50.800;6.772;2023-11-19T06:53:35;14.88;;;4.22;;
11016;SDS011;54687;50.800;6.772;2023-11-19T06:56:02;12.93;;;4.25;;
11016;SDS011;54687;50.800;6.772;2023-11-19T06:58:31;14.05;;;4.90;;
11016;SDS011;54687;50.800;6.772;2023-11-19T07:00:59;16.50;;;4.43;;
11016;SDS011;54687;50.800;6.772;2023-11-19T07:03:25;15.32;;;4.90;;
11016;SDS011;54687;50.800;6.772;2023-11-19T07:05:52;15.98;;;4.30;;
11016;SDS011;54687;50.800;6.772;2023-11-19T07:08:19;15.27;;;3.92;;
11016;SDS011;54687;50.800;6.772;2023-11-19T07:10:46;14.70;;;4.38;;
11016;SDS011;54687;50.800;6.772;2023-11-19T07:13:13;13.65;;;4.03;;
11016;SDS011;54687;50.800;6.772;2023-11-19T07:15:40;20.92;;;5.68;;
11016;SDS011;54687;50.800;6.772;2023-11-19T07:18:08;16.67;;;4.38;;
11016;SDS011;54687;50.800;6.772;2023-11-19T07:20:36;14.00;;;4.80;;
11016;SDS011;54687;50.800;6.772;2023-11-19T07:23:03;13.70;;;4.43;;
11016;SDS011;54687;50.800;6.772;2023-11-19T07:25:29;18.67;;;5.28;;
11016;SDS011;54687;50.800;6.772;2023-11-19T07:27:56;14.65;;;4.75;;
11016;SDS011;54687;50.800;6.772;2023-11-19T07:30:23;15.60;;;4.30;;
11016;SDS011;54687;50.800;6.772;2023-11-19T07:32:49;14.13;;;5.38;;
11016;SDS011;54687;50.800;6.772;2023-11-19T07:35:17;16.33;;;4.97;;
11016;SDS011;54687;50.800;6.772;2023-11-19T07:37:44;16.98;;;4.93;;
11016;SDS011;54687;50.800;6.772;2023-11-19T07:40:13;22.17;;;5.28;;
11016;SDS011;54687;50.800;6.772;2023-11-19T07:42:39;15.90;;;4.72;;
11016;SDS011;54687;50.800;6.772;2023-11-19T07:45:06;15.00;;;4.68;;
11016;SDS011;54687;50.800;6.772;2023-11-19T07:47:33;13.88;;;4.10;;
11016;SDS011;54687;50.800;6.772;2023-11-19T07:50:00;14.45;;;4.43;;
11016;SDS011;54687;50.800;6.772;2023-11-19T07:52:28;11.85;;;3.80;;
11016;SDS011;54687;50.800;6.772;2023-11-19T07:54:55;16.48;;;4.57;;
11016;SDS011;54687;50.800;6.772;2023-11-19T07:57:21;13.35;;;4.60;;
11016;SDS011;54687;50.800;6.772;2023-11-19T07:59:49;17.20;;;5.15;;
11016;SDS011;54687;50.800;6.772;2023-11-19T08:02:16;15.63;;;4.47;;
11016;SDS011;54687;50.800;6.772;2023-11-19T08:04:43;20.17;;;5.40;;
11016;SDS011;54687;50.800;6.772;2023-11-19T08:07:11;18.67;;;5.15;;
11016;SDS011;54687;50.800;6.772;2023-11-19T08:09:39;14.13;;;5.22;;
11016;SDS011;54687;50.800;6.772;2023-11-19T08:12:06;15.77;;;4.85;;
11016;SDS011;54687;50.800;6.772;2023-11-19T08:14:34;17.75;;;5.05;;
11016;SDS011;54687;50.800;6.772;2023-11-19T08:17:02;16.02;;;5.22;;
11016;SDS011;54687;50.800;6.772;2023-11-19T08:19:29;20.75;;;5.65;;
11016;SDS011;54687;50.800;6.772;2023-11-19T08:21:56;15.65;;;4.60;;
11016;SDS011;54687;50.800;6.772;2023-11-19T08:24:22;16.65;;;5.25;;
11016;SDS011;54687;50.800;6.772;2023-11-19T08:26:50;19.48;;;5.38;;
11016;SDS011;54687;50.800;6.772;2023-11-19T08:29:17;15.18;;;4.68;;
11016;SDS011;54687;50.800;6.772;2023-11-19T08:31:43;21.90;;;5.65;;
11016;SDS011;54687;50.800;6.772;2023-11-19T08:34:10;14.55;;;4.82;;
11016;SDS011;54687;50.800;6.772;2023-11-19T08:36:37;16.35;;;5.38;;
11016;SDS011;54687;50.800;6.772;2023-11-19T08:39:04;19.00;;;5.15;;
11016;SDS011;54687;50.800;6.772;2023-11-19T08:41:31;21.33;;;5.30;;
11016;SDS011;54687;50.800;6.772;2023-11-19T08:44:00;17.48;;;5.10;;
11016;SDS011;54687;50.800;6.772;2023-11-19T08:46:26;24.15;;;5.55;;
11016;SDS011;54687;50.800;6.772;2023-11-19T08:48:53;16.30;;;4.82;;
11016;SDS011;54687;50.800;6.772;2023-11-19T08:51:22;19.48;;;5.32;;
11016;SDS011;54687;50.800;6.772;2023-11-19T08:53:50;15.88;;;5.10;;
11016;SDS011;54687;50.800;6.772;2023-11-19T08:56:16;15.60;;;5.15;;
11016;SDS011;54687;50.800;6.772;2023-11-19T08:58:43;15.57;;;5.15;;
11016;SDS011;54687;50.800;6.772;2023-11-19T09:01:11;16.27;;;4.85;;
11016;SDS011;54687;50.800;6.772;2023-11-19T09:03:38;13.57;;;5.50;;
11016;SDS011;54687;50.800;6.772;2023-11-19T09:06:05;15.07;;;5.50;;
11016;SDS011;54687;50.800;6.772;2023-11-19T09:08:32;20.17;;;6.03;;
11016;SDS011;54687;50.800;6.772;2023-11-19T09:10:59;17.67;;;5.30;;
11016;SDS011;54687;50.800;6.772;2023-11-19T09:13:25;19.38;;;5.88;;
11016;SDS011;54687;50.800;6.772;2023-11-19T09:15:52;18.17;;;5.32;;
11016;SDS011;54687;50.800;6.772;2023-11-19T09:18:20;18.20;;;5.40;;
11016;SDS011;54687;50.800;6.772;2023-11-19T09:20:47;19.13;;;5.40;;
11016;SDS011;54687;50.800;6.772;2023-11-19T09:23:13;16.13;;;5.20;;
11016;SDS011;54687;50.800;6.772;2023-11-19T09:25:40;14.35;;;4.93;;
11016;SDS011;54687;50.800;6.772;2023-11-19T09:28:07;19.42;;;5.40;;
11016;SDS011;54687;50.800;6.772;2023-11-19T09:30:34;15.55;;;4.72;;
11016;SDS011;54687;50.800;6.772;2023-11-19T09:33:00;11.77;;;4.65;;
11016;SDS011;54687;50.800;6.772;2023-11-19T09:35:28;17.38;;;5.28;;
11016;SDS011;54687;50.800;6.772;2023-11-19T09:37:55;18.92;;;5.57;;
11016;SDS011;54687;50.800;6.772;2023-11-19T09:40:23;15.13;;;4.47;;
11016;SDS011;54687;50.800;6.772;2023-11-19T09:42:50;21.85;;;5.32;;
11016;SDS011;54687;50.800;6.772;2023-11-19T09:45:17;16.88;;;5.47;;
11016;SDS011;54687;50.800;6.772;2023-11-19T09:47:47;19.63;;;4.53;;
11016;SDS011;54687;50.800;6.772;2023-11-19T09:50:14;16.50;;;4.82;;
11016;SDS011;54687;50.800;6.772;2023-11-19T09:52:45;16.73;;;5.20;;
11016;SDS011;54687;50.800;6.772;2023-11-19T09:55:12;14.52;;;5.90;;
11016;SDS011;54687;50.800;6.772;2023-11-19T09:57:40;15.25;;;4.82;;
11016;SDS011;54687;50.800;6.772;2023-11-19T10:00:09;20.77;;;5.85;;
11016;SDS011;54687;50.800;6.772;2023-11-19T10:02:37;18.70;;;5.60;;
11016;SDS011;54687;50.800;6.772;2023-11-19T10:05:06;18.73;;;6.10;;
11016;SDS011;54687;50.800;6.772;2023-11-19T10:07:33;18.58;;;4.88;;
11016;SDS011;54687;50.800;6.772;2023-11-19T10:10:02;18.77;;;5.85;;
11016;SDS011;54687;50.800;6.772;2023-11-19T10:12:30;16.55;;;5.20;;
11016;SDS011;54687;50.800;6.772;2023-11-19T10:14:57;18.85;;;5.60;;
11016;SDS011;54687;50.800;6.772;2023-11-19T10:17:27;18.58;;;5.00;;
11016;SDS011;54687;50.800;6.772;2023-11-19T10:19:54;16.48;;;5.28;;
11016;SDS011;54687;50.800;6.772;2023-11-19T10:22:22;17.85;;;5.43;;
11016;SDS011;54687;50.800;6.772;2023-11-19T10:24:49;14.05;;;4.20;;
11016;SDS011;54687;50.800;6.772;2023-11-19T10:27:17;15.95;;;5.97;;
11016;SDS011;54687;50.800;6.772;2023-11-19T10:29:44;23.48;;;6.10;;
11016;SDS011;54687;50.800;6.772;2023-11-19T10:32:12;17.98;;;4.93;;
11016;SDS011;54687;50.800;6.772;2023-11-19T10:34:38;17.23;;;6.18;;
11016;SDS011;54687;50.800;6.772;2023-11-19T10:37:06;18.42;;;5.35;;
11016;SDS011;54687;50.800;6.772;2023-11-19T10:42:19;15.75;;;4.95;;
11016;SDS011;54687;50.800;6.772;2023-11-19T10:44:46;15.15;;;4.65;;
11016;SDS011;54687;50.800;6.772;2023-11-19T10:47:13;14.45;;;4.53;;
11016;SDS011;54687;50.800;6.772;2023-11-19T10:49:42;16.95;;;5.38;;
11016;SDS011;54687;50.800;6.772;2023-11-19T10:52:11;15.10;;;5.93;;
11016;SDS011;54687;50.800;6.772;2023-11-19T10:54:42;13.07;;;4.57;;
11016;SDS011;54687;50.800;6.772;2023-11-19T10:57:10;14.43;;;4.20;;
11016;SDS011;54687;50.800;6.772;2023-11-19T10:59:46;11.73;;;3.42;;
11016;SDS011;54687;50.800;6.772;2023-11-19T11:02:16;14.80;;;5.00;;
11016;SDS011;54687;50.800;6.772;2023-11-19T11:04:47;15.10;;;5.05;;
11016;SDS011;54687;50.800;6.772;2023-11-19T11:07:16;10.65;;;4.05;;
11016;SDS011;54687;50.800;6.772;2023-11-19T11:09:48;16.73;;;4.55;;
11016;SDS011;54687;50.800;6.772;2023-11-19T11:12:15;12.98;;;4.32;;
11016;SDS011;54687;50.800;6.772;2023-11-19T11:14:44;14.50;;;5.07;;
11016;SDS011;54687;50.800;6.772;2023-11-19T11:17:14;13.80;;;4.95;;
11016;SDS011;54687;50.800;6.772;2023-11-19T11:19:43;12.60;;;4.38;;
11016;SDS011;54687;50.800;6.772;2023-11-19T11:22:10;12.63;;;4.35;;
11016;SDS011;54687;50.800;6.772;2023-11-19T11:24:45;14.57;;;4.75;;
11016;SDS011;54687;50.800;6.772;2023-11-19T11:27:37;11.48;;;3.78;;
11016;SDS011;54687;50.800;6.772;2023-11-19T11:30:33;8.52;;;2.90;;
11016;SDS011;54687;50.800;6.772;2023-11-19T11:33:19;10.75;;;3.28;;
11016;SDS011;54687;50.800;6.772;2023-11-19T11:36:02;12.07;;;3.60;;
11016;SDS011;54687;50.800;6.772;2023-11-19T11:38:39;14.57;;;4.25;;
11016;SDS011;54687;50.800;6.772;2023-11-19T11:41:17;15.82;;;4.47;;
11016;SDS011;54687;50.800;6.772;2023-11-19T11:43:47;9.68;;;3.45;;
11016;SDS011;54687;50.800;6.772;2023-11-19T11:49:27;8.05;;;3.63;;
11016;SDS011;54687;50.800;6.772;2023-11-19T11:51:59;8.57;;;3.50;;
11016;SDS011;54687;50.800;6.772;2023-11-19T11:54:26;9.18;;;3.65;;
11016;SDS011;54687;50.800;6.772;2023-11-19T11:59:46;10.65;;;3.70;;
11016;SDS011;54687;50.800;6.772;2023-11-19T12:02:15;7.55;;;3.10;;
11016;SDS011;54687;50.800;6.772;2023-11-19T12:04:45;8.55;;;3.42;;
11016;SDS011;54687;50.800;6.772;2023-11-19T12:07:14;11.57;;;3.53;;
11016;SDS011;54687;50.800;6.772;2023-11-19T12:09:45;10.50;;;3.42;;
11016;SDS011;54687;50.800;6.772;2023-11-19T12:12:18;11.13;;;4.63;;
11016;SDS011;54687;50.800;6.772;2023-11-19T12:17:36;13.07;;;4.07;;
11016;SDS011;54687;50.800;6.772;2023-11-19T12:20:15;11.60;;;3.67;;
11016;SDS011;54687;50.800;6.772;2023-11-19T12:22:44;14.18;;;3.95;;
11016;SDS011;54687;50.800;6.772;2023-11-19T12:25:11;10.70;;;4.15;;
11016;SDS011;54687;50.800;6.772;2023-11-19T12:27:39;15.05;;;3.83;;
11016;SDS011;54687;50.800;6.772;2023-11-19T12:30:07;10.48;;;3.97;;
11016;SDS011;54687;50.800;6.772;2023-11-19T12:32:38;12.80;;;3.95;;
11016;SDS011;54687;50.800;6.772;2023-11-19T12:35:06;10.05;;;3.42;;
11016;SDS011;54687;50.800;6.772;2023-11-19T12:37:41;10.30;;;4.05;;
11016;SDS011;54687;50.800;6.772;2023-11-19T12:40:15;8.60;;;3.38;;
11016;SDS011;54687;50.800;6.772;2023-11-19T12:42:43;14.07;;;3.63;;
11016;SDS011;54687;50.800;6.772;2023-11-19T12:45:10;11.38;;;4.22;;
11016;SDS011;54687;50.800;6.772;2023-11-19T12:47:37;8.35;;;3.17;;
11016;SDS011;54687;50.800;6.772;2023-11-19T12:50:04;10.57;;;3.60;;
11016;SDS011;54687;50.800;6.772;2023-11-19T12:52:32;7.53;;;3.15;;
11016;SDS011;54687;50.800;6.772;2023-11-19T12:55:00;9.82;;;3.65;;
11016;SDS011;54687;50.800;6.772;2023-11-19T12:57:37;7.78;;;3.35;;
11016;SDS011;54687;50.800;6.772;2023-11-19T13:00:04;12.13;;;3.90;;
11016;SDS011;54687;50.800;6.772;2023-11-19T13:02:44;10.48;;;3.85;;
11016;SDS011;54687;50.800;6.772;2023-11-19T13:05:24;11.52;;;3.97;;
11016;SDS011;54687;50.800;6.772;2023-11-19T13:07:57;11.55;;;3.58;;
11016;SDS011;54687;50.800;6.772;2023-11-19T13:10:27;10.07;;;3.80;;
11016;SDS011;54687;50.800;6.772;2023-11-19T13:13:00;11.23;;;3.22;;
11016;SDS011;54687;50.800;6.772;2023-11-19T13:15:32;12.98;;;4.18;;
11016;SDS011;54687;50.800;6.772;2023-11-19T13:17:58;11.77;;;4.20;;
11016;SDS011;54687;50.800;6.772;2023-11-19T13:20:25;10.52;;;3.85;;
11016;SDS011;54687;50.800;6.772;2023-11-19T13:22:55;9.35;;;3.70;;
11016;SDS011;54687;50.800;6.772;2023-11-19T13:25:23;16.52;;;4.55;;
11016;SDS011;54687;50.800;6.772;2023-11-19T13:27:51;9.32;;;3.78;;
11016;SDS011;54687;50.800;6.772;2023-11-19T13:30:18;12.90;;;4.35;;
11016;SDS011;54687;50.800;6.772;2023-11-19T13:32:45;12.27;;;4.57;;
11016;SDS011;54687;50.800;6.772;2023-11-19T13:35:12;16.90;;;4.88;;
11016;SDS011;54687;50.800;6.772;2023-11-19T13:37:39;11.15;;;3.88;;
11016;SDS011;54687;50.800;6.772;2023-11-19T13:40:06;19.17;;;5.85;;
11016;SDS011;54687;50.800;6.772;2023-11-19T13:42:35;16.60;;;5.00;;
11016;SDS011;54687;50.800;6.772;2023-11-19T13:45:08;12.10;;;4.25;;
11016;SDS011;54687;50.800;6.772;2023-11-19T13:47:37;11.07;;;3.78;;
11016;SDS011;54687;50.800;6.772;2023-11-19T13:50:06;12.77;;;4.10;;
11016;SDS011;54687;50.800;6.772;2023-11-19T13:52:34;13.40;;;4.53;;
11016;SDS011;54687;50.800;6.772;2023-11-19T13:55:02;12.85;;;4.53;;
11016;SDS011;54687;50.800;6.772;2023-11-19T13:57:29;11.48;;;4.65;;
11016;SDS011;54687;50.800;6.772;2023-11-19T13:59:57;13.57;;;4.90;;
11016;SDS011;54687;50.800;6.772;2023-11-19T14:02:25;8.00;;;3.70;;
11016;SDS011;54687;50.800;6.772;2023-11-19T14:04:52;12.00;;;4.13;;
11016;SDS011;54687;50.800;6.772;2023-11-19T14:07:18;13.45;;;4.25;;
11016;SDS011;54687;50.800;6.772;2023-11-19T14:09:45;10.90;;;3.92;;
11016;SDS011;54687;50.800;6.772;2023-11-19T14:12:11;14.48;;;4.20;;
11016;SDS011;54687;50.800;6.772;2023-11-19T14:14:39;10.13;;;3.95;;
11016;SDS011;54687;50.800;6.772;2023-11-19T14:17:07;10.30;;;4.07;;
11016;SDS011;54687;50.800;6.772;2023-11-19T14:19:35;9.68;;;3.85;;
11016;SDS011;54687;50.800;6.772;2023-11-19T14:22:02;12.25;;;3.97;;
11016;SDS011;54687;50.800;6.772;2023-11-19T14:24:28;10.90;;;3.47;;
11016;SDS011;54687;50.800;6.772;2023-11-19T14:26:55;9.63;;;3.35;;
11016;SDS011;54687;50.800;6.772;2023-11-19T14:29:23;8.63;;;3.10;;
11016;SDS011;54687;50.800;6.772;2023-11-19T14:31:51;10.57;;;4.00;;
11016;SDS011;54687;50.800;6.772;2023-11-19T14:34:17;11.27;;;3.85;;
11016;SDS011;54687;50.800;6.772;2023-11-19T14:36:46;13.15;;;3.90;;
11016;SDS011;54687;50.800;6.772;2023-11-19T14:39:14;11.45;;;4.18;;
11016;SDS011;54687;50.800;6.772;2023-11-19T14:41:42;9.65;;;3.90;;
11016;SDS011;54687;50.800;6.772;2023-11-19T14:44:09;11.45;;;3.88;;
11016;SDS011;54687;50.800;6.772;2023-11-19T14:46:36;13.43;;;3.80;;
11016;SDS011;54687;50.800;6.772;2023-11-19T14:49:03;15.10;;;4.57;;
11016;SDS011;54687;50.800;6.772;2023-11-19T14:51:30;8.68;;;3.85;;
11016;SDS011;54687;50.800;6.772;2023-11-19T14:53:58;12.48;;;4.07;;
11016;SDS011;54687;50.800;6.772;2023-11-19T14:56:24;14.25;;;4.32;;
11016;SDS011;54687;50.800;6.772;2023-11-19T14:58:51;10.85;;;4.22;;